Time;durP1;ratioP1;P1;durP2;ratioP2;P2;SDS_P1;SDS_P2;PMS_P1;PMS_P2;Temp;Humidity;BMP_temperature;BMP_pressure;BME280_temperature;BME280_humidity;BME280_pressure;Samples;Min_cycle;Max_cycle;Signal;HPM_P1;HPM_P2
2021/03/22 00:01:43;;;;;;;8.47;7.50;;;;;;;3.90;70.86;95680.41;5033644;28;20771;-82
2021/03/22 00:04:09;;;;;;;9.27;7.90;;;;;;;3.85;71.58;95683.34;5033908;28;20233;-84
2021/03/22 00:06:35;;;;;;;9.87;7.90;;;;;;;3.91;70.83;95692.19;5032514;28;20300;-83
2021/03/22 00:09:01;;;;;;;10.50;8.10;;;;;;;3.95;70.86;95673.19;5015492;28;20241;-82
2021/03/22 00:11:27;;;;;;;9.70;8.23;;;;;;;3.92;71.01;95676.78;5023544;28;20221;-80
2021/03/22 00:13:53;;;;;;;9.50;8.40;;;;;;;3.94;71.06;95677.47;5032679;28;20308;-81
2021/03/22 00:16:19;;;;;;;8.90;7.93;;;;;;;3.88;71.57;95674.63;5021926;28;20222;-83
2021/03/22 00:18:46;;;;;;;10.57;8.13;;;;;;;3.92;71.52;95674.25;5026759;28;20238;-82
2021/03/22 00:21:13;;;;;;;9.00;7.73;;;;;;;3.95;71.16;95670.63;5022776;28;20238;-80
2021/03/22 00:23:40;;;;;;;10.13;8.03;;;;;;;3.96;71.10;95665.41;5012929;28;20233;-82
2021/03/22 00:26:07;;;;;;;9.50;7.73;;;;;;;3.93;71.34;95667.41;5021031;28;20217;-81
2021/03/22 00:28:38;;;;;;;9.57;8.40;;;;;;;3.89;71.40;95664.31;5030742;28;20745;-80
2021/03/22 00:31:05;;;;;;;10.30;7.97;;;;;;;3.84;71.94;95663.13;5023288;28;20576;-82
2021/03/22 00:33:31;;;;;;;9.53;8.47;;;;;;;3.80;72.42;95662.59;5017136;28;20229;-82
2021/03/22 00:35:58;;;;;;;10.83;8.70;;;;;;;3.87;71.45;95661.09;5026115;28;20222;-81
2021/03/22 00:38:24;;;;;;;8.83;7.93;;;;;;;3.88;71.53;95664.44;5025227;28;20225;-81
2021/03/22 00:40:50;;;;;;;9.83;7.73;;;;;;;3.88;71.55;95667.00;5018401;28;20330;-81
2021/03/22 00:43:16;;;;;;;10.20;8.77;;;;;;;3.76;72.24;95666.34;5030036;28;20198;-82
2021/03/22 00:45:42;;;;;;;11.43;8.93;;;;;;;3.72;72.86;95663.25;5033179;28;20226;-81
2021/03/22 00:48:08;;;;;;;10.10;8.27;;;;;;;3.78;72.00;95656.81;5032530;28;20230;-82
2021/03/22 00:50:37;;;;;;;10.17;7.87;;;;;;;3.78;72.45;95656.81;5034021;28;20229;-82
2021/03/22 00:53:05;;;;;;;9.63;8.27;;;;;;;3.79;72.66;95651.59;5022159;28;20235;-83
2021/03/22 00:55:31;;;;;;;9.90;8.43;;;;;;;3.72;73.28;95647.16;5015232;28;20219;-82
2021/03/22 00:57:57;;;;;;;10.00;8.27;;;;;;;3.79;72.29;95645.69;5022706;28;20227;-80
2021/03/22 01:00:27;;;;;;;11.07;8.30;;;;;;;3.80;72.70;95645.56;5013649;28;20226;-82
2021/03/22 01:02:53;;;;;;;10.30;8.37;;;;;;;3.75;72.65;95640.06;5014029;28;20227;-84
2021/03/22 01:05:20;;;;;;;13.50;8.30;;;;;;;3.77;72.92;95643.28;5017297;28;20230;-81
2021/03/22 01:07:46;;;;;;;9.97;8.77;;;;;;;3.74;72.75;95640.19;5026631;28;20210;-80
2021/03/22 01:10:26;;;;;;;12.63;8.03;;;;;;;3.68;73.64;95638.16;5017523;28;20214;-81
2021/03/22 01:12:52;;;;;;;13.40;8.30;;;;;;;3.57;74.01;95644.19;5035568;28;20578;-82
2021/03/22 01:15:19;;;;;;;12.20;8.20;;;;;;;3.55;74.55;95638.44;5024215;28;20230;-81
2021/03/22 01:17:45;;;;;;;10.80;8.47;;;;;;;3.51;75.09;95638.81;5025604;28;20318;-83
2021/03/22 01:20:13;;;;;;;11.13;8.70;;;;;;;3.54;75.05;95639.38;5037223;28;20221;-83
2021/03/22 01:22:39;;;;;;;10.77;8.90;;;;;;;3.59;74.06;95631.34;5030295;28;20202;-83
2021/03/22 01:25:08;;;;;;;9.87;8.70;;;;;;;3.58;74.98;95629.72;5018222;28;20610;-82
2021/03/22 01:27:36;;;;;;;12.60;8.87;;;;;;;3.64;74.29;95631.75;5023847;28;20216;-80
2021/03/22 01:30:11;;;;;;;11.23;8.20;;;;;;;3.70;74.11;95632.00;5037480;28;20233;-81
2021/03/22 01:32:37;;;;;;;11.63;8.20;;;;;;;3.75;73.52;95631.63;5030666;28;20222;-83
2021/03/22 01:35:07;;;;;;;9.97;8.63;;;;;;;3.76;73.61;95628.13;5034558;28;20950;-83
2021/03/22 01:37:33;;;;;;;11.67;8.70;;;;;;;3.75;73.73;95632.41;5030842;28;20192;-83
2021/03/22 01:39:59;;;;;;;9.73;8.30;;;;;;;3.64;74.61;95622.38;5016145;28;20254;-84
2021/03/22 01:42:35;;;;;;;10.37;8.17;;;;;;;3.56;75.41;95621.41;5021135;28;20223;-81
2021/03/22 01:45:05;;;;;;;11.20;8.37;;;;;;;3.57;74.92;95625.56;5036680;28;20280;-80
2021/03/22 01:47:33;;;;;;;9.30;7.77;;;;;;;3.69;74.00;95627.84;5030634;28;20246;-81
2021/03/22 01:50:06;;;;;;;10.80;7.90;;;;;;;3.76;74.32;95617.94;5017199;28;20293;-80
2021/03/22 01:52:34;;;;;;;11.03;8.57;;;;;;;3.77;74.31;95622.09;5024420;28;20221;-83
2021/03/22 01:55:00;;;;;;;11.00;8.20;;;;;;;3.65;74.79;95613.81;5036412;28;20227;-83
2021/03/22 01:57:30;;;;;;;12.00;8.77;;;;;;;3.70;74.82;95616.75;5022577;28;20222;-83
2021/03/22 02:00:09;;;;;;;12.27;8.83;;;;;;;3.68;75.04;95618.59;5035697;28;20246;-84
2021/03/22 02:02:36;;;;;;;14.40;8.53;;;;;;;3.72;74.73;95612.31;5017048;28;20223;-83
2021/03/22 02:05:02;;;;;;;12.57;8.73;;;;;;;3.75;74.58;95608.72;5016187;28;20314;-83
2021/03/22 02:07:30;;;;;;;12.13;8.30;;;;;;;3.77;74.43;95612.72;5022980;28;20194;-83
2021/03/22 02:09:56;;;;;;;13.50;9.33;;;;;;;3.71;74.69;95607.34;5034766;28;20234;-84
2021/03/22 02:12:23;;;;;;;12.03;9.13;;;;;;;3.74;74.17;95615.53;5022296;28;20729;-83
2021/03/22 02:14:51;;;;;;;10.80;8.60;;;;;;;3.77;74.84;95607.63;5035814;28;20241;-83
2021/03/22 02:17:28;;;;;;;10.70;8.50;;;;;;;3.80;74.24;95619.31;5021413;28;20679;-83
2021/03/22 02:20:37;;;;;;;11.00;8.10;;;;;;;3.85;74.40;95617.13;5015031;28;20203;-82
2021/03/22 02:23:45;;;;;;;11.40;8.30;;;;;;;3.75;75.03;95624.78;5022992;28;20225;-83
2021/03/22 02:26:32;;;;;;;12.67;7.90;;;;;;;3.81;74.95;95626.00;5034177;28;20260;-83
2021/03/22 02:29:26;;;;;;;14.70;8.93;;;;;;;3.73;75.02;95625.84;5035836;28;20209;-82
2021/03/22 02:32:35;;;;;;;13.33;7.87;;;;;;;3.74;74.90;95628.28;5025232;28;20553;-83
2021/03/22 02:35:06;;;;;;;10.30;8.07;;;;;;;3.78;74.73;95637.25;5004276;28;20922;-83
2021/03/22 02:37:38;;;;;;;10.47;8.30;;;;;;;3.83;74.50;95641.94;5035445;28;20205;-84
2021/03/22 02:40:14;;;;;;;13.37;8.67;;;;;;;3.81;74.96;95646.38;5035687;28;20229;-83
2021/03/22 02:42:45;;;;;;;10.07;8.57;;;;;;;3.90;74.18;95647.31;5030568;28;20599;-82
2021/03/22 02:45:20;;;;;;;12.17;8.13;;;;;;;3.95;74.17;95643.41;5034666;28;20229;-84
2021/03/22 02:47:46;;;;;;;12.30;8.40;;;;;;;3.95;74.43;95652.81;5017315;28;20230;-82
2021/03/22 02:50:17;;;;;;;12.23;8.53;;;;;;;3.96;74.00;95655.22;5014362;28;20317;-83
2021/03/22 02:53:15;;;;;;;10.30;8.17;;;;;;;3.92;74.53;95646.22;5014454;28;20214;-84
2021/03/22 02:55:54;;;;;;;13.80;8.43;;;;;;;3.96;74.54;95645.03;5013888;28;20223;-82
2021/03/22 02:58:25;;;;;;;12.50;8.40;;;;;;;3.93;74.52;95652.13;5018469;28;20198;-81
2021/03/22 03:00:58;;;;;;;15.40;8.83;;;;;;;3.95;74.59;95650.25;5032807;28;20226;-81
2021/03/22 03:03:26;;;;;;;13.47;9.07;;;;;;;3.90;74.61;95653.19;5022375;28;20229;-83
2021/03/22 03:05:54;;;;;;;16.17;8.87;;;;;;;3.85;75.50;95657.09;5014274;28;20710;-80
2021/03/22 03:08:23;;;;;;;11.43;8.83;;;;;;;3.92;74.75;95668.34;5015341;28;20223;-79
2021/03/22 03:10:50;;;;;;;14.30;8.63;;;;;;;3.94;74.64;95669.03;5014940;28;20210;-82
2021/03/22 03:13:16;;;;;;;12.13;8.33;;;;;;;3.98;74.13;95675.47;5016761;28;20203;-83
2021/03/22 03:15:41;;;;;;;14.97;8.90;;;;;;;3.99;74.37;95677.06;5015189;28;20334;-80
2021/03/22 03:18:08;;;;;;;10.90;8.60;;;;;;;4.01;74.35;95678.56;5032191;28;20246;-83
2021/03/22 03:20:34;;;;;;;12.63;7.90;;;;;;;4.02;74.34;95679.34;5032933;28;20249;-81
2021/03/22 03:23:01;;;;;;;13.20;8.60;;;;;;;3.96;74.45;95677.34;5018599;28;20207;-81
2021/03/22 03:25:29;;;;;;;10.50;7.70;;;;;;;3.96;74.18;95678.13;5014462;28;20230;-80
2021/03/22 03:27:56;;;;;;;12.00;7.87;;;;;;;3.95;74.04;95675.72;5023245;28;20268;-83
2021/03/22 03:30:25;;;;;;;11.87;8.37;;;;;;;3.93;74.50;95680.94;5017531;28;20252;-82
2021/03/22 03:32:52;;;;;;;12.03;7.97;;;;;;;3.97;73.98;95684.03;5024647;28;20637;-83
2021/03/22 03:35:20;;;;;;;12.70;7.73;;;;;;;4.00;73.97;95683.78;5035172;28;20290;-81
2021/03/22 03:37:46;;;;;;;13.23;7.67;;;;;;;4.02;73.47;95682.72;5032210;28;20198;-80
2021/03/22 03:40:19;;;;;;;14.07;7.47;;;;;;;4.08;73.38;95686.44;5015765;28;20264;-80
2021/03/22 03:42:45;;;;;;;16.30;7.50;;;;;;;4.04;73.79;95685.13;5033676;28;20221;-83
2021/03/22 03:45:15;;;;;;;16.43;7.63;;;;;;;4.07;73.38;95680.53;5032102;28;20264;-82
2021/03/22 03:47:42;;;;;;;11.70;7.63;;;;;;;4.07;73.52;95684.84;5018638;28;20271;-82
2021/03/22 03:50:11;;;;;;;16.87;8.70;;;;;;;4.08;73.65;95682.16;5032196;28;20290;-81
2021/03/22 03:52:37;;;;;;;15.27;7.87;;;;;;;4.08;73.65;95683.91;5032706;28;20206;-82
2021/03/22 03:55:05;;;;;;;11.37;7.70;;;;;;;4.08;73.33;95664.31;5013469;28;20241;-81
2021/03/22 03:57:32;;;;;;;18.47;8.97;;;;;;;4.06;73.68;95673.84;5014938;28;20234;-82
2021/03/22 03:59:58;;;;;;;15.50;8.07;;;;;;;4.03;73.98;95674.13;5013619;28;20241;-81
2021/03/22 04:02:24;;;;;;;15.13;8.60;;;;;;;3.99;74.20;95674.53;5032450;28;20233;-81
2021/03/22 04:04:50;;;;;;;12.80;8.10;;;;;;;3.98;74.42;95672.91;5032046;28;20771;-82
2021/03/22 04:07:16;;;;;;;14.67;7.73;;;;;;;4.01;74.20;95676.00;5015447;28;20218;-81
2021/03/22 04:09:42;;;;;;;12.20;7.97;;;;;;;4.04;73.91;95682.59;5029058;28;20230;-81
2021/03/22 04:12:10;;;;;;;15.27;8.33;;;;;;;4.03;74.68;95683.53;5017045;28;20234;-81
2021/03/22 04:14:37;;;;;;;12.03;8.00;;;;;;;4.05;74.09;95684.16;5013241;28;20230;-82
2021/03/22 04:17:03;;;;;;;13.50;8.63;;;;;;;4.03;74.38;95684.31;5032413;28;20233;-81
2021/03/22 04:19:29;;;;;;;14.57;8.23;;;;;;;4.02;74.19;95687.81;5017160;28;20261;-81
2021/03/22 04:21:55;;;;;;;11.67;7.80;;;;;;;4.00;74.45;95688.88;5012332;28;20230;-79
2021/03/22 04:24:23;;;;;;;14.30;8.07;;;;;;;3.99;74.37;95684.72;5015323;28;20288;-80
2021/03/22 04:26:49;;;;;;;13.30;8.40;;;;;;;3.98;74.81;95693.28;5012896;28;20230;-82
2021/03/22 04:29:15;;;;;;;14.60;8.40;;;;;;;4.02;74.71;95690.34;5026101;28;20244;-79
2021/03/22 04:31:42;;;;;;;12.80;7.93;;;;;;;4.05;73.94;95696.91;5033264;28;20202;-79
2021/03/22 04:34:08;;;;;;;13.37;7.50;;;;;;;4.05;74.27;95684.97;5030282;28;20963;-79
2021/03/22 04:36:37;;;;;;;14.37;8.17;;;;;;;4.02;73.97;95687.00;5031947;28;20272;-81
2021/03/22 04:39:04;;;;;;;12.77;7.90;;;;;;;4.01;74.34;95690.50;5015109;28;20226;-81
2021/03/22 04:41:30;;;;;;;13.20;7.63;;;;;;;4.00;74.00;95683.78;5017490;28;20311;-81
2021/03/22 04:43:56;;;;;;;20.20;7.93;;;;;;;3.99;74.22;95687.25;5035437;28;20312;-81
2021/03/22 04:46:22;;;;;;;11.00;7.13;;;;;;;4.01;74.23;95686.19;5037434;28;20198;-79
2021/03/22 04:48:49;;;;;;;12.57;7.27;;;;;;;4.06;73.80;95688.31;5021030;28;20235;-81
2021/03/22 04:51:15;;;;;;;12.33;7.23;;;;;;;4.06;73.81;95688.31;5017759;28;20242;-83
2021/03/22 04:53:41;;;;;;;14.47;7.80;;;;;;;4.06;73.62;95685.78;5036922;28;20217;-82
2021/03/22 04:56:08;;;;;;;16.30;7.27;;;;;;;4.04;74.22;95687.69;5035715;28;20229;-80
2021/03/22 04:58:35;;;;;;;13.93;6.93;;;;;;;4.04;73.99;95685.91;5035195;28;20207;-81
2021/03/22 05:01:01;;;;;;;14.60;7.90;;;;;;;4.05;73.68;95694.34;5036035;28;20232;-82
2021/03/22 05:03:27;;;;;;;16.60;7.17;;;;;;;4.05;73.64;95696.91;5017910;28;20230;-81
2021/03/22 05:05:54;;;;;;;18.13;7.43;;;;;;;4.08;73.28;95697.44;5023305;28;20260;-81
2021/03/22 05:08:22;;;;;;;13.80;8.03;;;;;;;4.10;73.20;95695.56;5021671;28;20276;-79
2021/03/22 05:10:51;;;;;;;14.03;7.27;;;;;;;4.07;73.33;95693.28;5035984;28;20243;-81
2021/03/22 05:13:19;;;;;;;17.30;7.03;;;;;;;4.08;73.59;95691.53;5022667;28;20199;-81
2021/03/22 05:15:46;;;;;;;11.13;7.10;;;;;;;4.10;73.18;95697.31;5022481;28;20222;-81
2021/03/22 05:18:14;;;;;;;11.47;7.13;;;;;;;4.08;73.19;95704.28;5022467;28;20222;-81
2021/03/22 05:20:42;;;;;;;11.07;6.60;;;;;;;3.96;73.42;95710.44;5020580;28;20224;-83
2021/03/22 05:23:11;;;;;;;14.27;7.07;;;;;;;3.98;73.65;95714.47;5034023;28;20236;-82
2021/03/22 05:25:37;;;;;;;15.40;6.47;;;;;;;4.05;73.36;95715.53;5037756;28;20234;-80
2021/03/22 05:28:05;;;;;;;15.30;6.97;;;;;;;4.07;73.24;95717.94;5024047;28;20226;-83
2021/03/22 05:30:32;;;;;;;16.67;7.80;;;;;;;4.09;72.80;95713.53;5017687;28;20231;-82
2021/03/22 05:32:59;;;;;;;14.40;6.53;;;;;;;4.07;72.80;95718.75;5037063;28;20230;-80
2021/03/22 05:35:26;;;;;;;12.33;6.57;;;;;;;4.06;73.25;95708.69;5033859;28;20248;-80
2021/03/22 05:37:52;;;;;;;12.90;6.70;;;;;;;4.06;73.19;95701.88;5025726;28;20283;-80
2021/03/22 05:40:25;;;;;;;16.00;6.87;;;;;;;4.02;73.46;95708.19;5029372;28;20202;-83
2021/03/22 05:43:01;;;;;;;10.00;6.20;;;;;;;4.06;72.89;95706.97;5028987;28;20218;-80
2021/03/22 05:45:35;;;;;;;16.37;6.70;;;;;;;4.05;73.09;95707.91;5031861;28;20221;-81
2021/03/22 05:48:09;;;;;;;13.70;6.17;;;;;;;4.04;73.38;95715.69;5036711;28;20229;-83
2021/03/22 05:50:44;;;;;;;14.30;6.67;;;;;;;4.10;72.59;95707.50;5024414;28;20222;-81
2021/03/22 05:53:30;;;;;;;17.93;6.93;;;;;;;4.13;72.48;95713.13;5028963;28;20288;-80
2021/03/22 05:56:00;;;;;;;11.10;6.20;;;;;;;4.14;72.42;95721.59;5031557;28;20190;-80
2021/03/22 05:58:44;;;;;;;15.27;6.30;;;;;;;4.12;72.16;95731.09;5035382;28;20197;-81
2021/03/22 06:01:26;;;;;;;13.17;5.57;;;;;;;4.38;80.50;95736.50;5021078;28;20226;-83
2021/03/22 06:03:55;;;;;;;16.30;5.67;;;;;;;4.72;80.44;95731.75;5017882;28;20234;-82
2021/03/22 06:06:27;;;;;;;13.20;6.10;;;;;;;4.87;72.55;95740.56;5032052;28;20233;-83
2021/03/22 06:08:56;;;;;;;13.43;5.70;;;;;;;4.79;70.87;95738.72;5035785;28;20233;-84
2021/03/22 06:11:42;;;;;;;16.33;6.80;;;;;;;4.71;70.50;95741.16;5033993;28;20222;-84
2021/03/22 06:14:14;;;;;;;12.17;5.63;;;;;;;4.60;70.82;95746.41;5015344;28;20222;-81
2021/03/22 06:16:45;;;;;;;14.57;6.10;;;;;;;4.50;70.85;95754.06;5017793;28;20268;-83
2021/03/22 06:19:13;;;;;;;11.37;5.17;;;;;;;4.41;71.13;95751.50;5034409;28;20206;-82
2021/03/22 06:21:43;;;;;;;13.73;6.00;;;;;;;4.37;71.18;95748.44;5017446;28;20257;-82
2021/03/22 06:24:15;;;;;;;12.27;5.40;;;;;;;4.36;70.86;95749.38;5034140;28;20226;-84
2021/03/22 06:26:44;;;;;;;14.80;6.10;;;;;;;4.31;71.30;95748.94;5017109;28;20276;-81
2021/03/22 06:29:17;;;;;;;16.17;5.80;;;;;;;4.32;70.75;95744.66;5014315;28;20234;-84
2021/03/22 06:31:44;;;;;;;13.90;5.03;;;;;;;4.36;70.58;95754.47;5033017;28;20213;-81
2021/03/22 06:34:15;;;;;;;13.60;5.90;;;;;;;4.35;70.44;95759.69;5036132;28;20252;-81
2021/03/22 06:36:41;;;;;;;15.40;5.43;;;;;;;4.36;70.24;95761.31;5036091;28;20229;-83
2021/03/22 06:39:09;;;;;;;13.90;6.03;;;;;;;4.32;70.29;95763.31;5035649;28;20222;-82
2021/03/22 06:41:40;;;;;;;18.07;5.00;;;;;;;4.35;70.27;95765.59;5034102;28;20225;-83
2021/03/22 06:44:09;;;;;;;15.43;5.40;;;;;;;4.38;70.15;95772.16;5035446;28;20230;-82
2021/03/22 06:46:56;;;;;;;15.00;5.87;;;;;;;4.34;70.16;95774.19;5033801;28;20579;-84
2021/03/22 06:49:25;;;;;;;14.23;5.80;;;;;;;4.29;70.70;95773.75;5034927;28;20222;-82
2021/03/22 06:52:00;;;;;;;15.80;5.67;;;;;;;4.25;70.90;95774.97;5029244;28;20226;-83
2021/03/22 06:54:36;;;;;;;13.17;5.33;;;;;;;4.11;71.85;95786.34;5014910;28;20222;-81
2021/03/22 06:57:06;;;;;;;14.23;5.03;;;;;;;4.04;72.10;95789.56;5033515;28;20241;-80
2021/03/22 06:59:33;;;;;;;14.23;5.30;;;;;;;4.11;71.71;95798.28;5034447;28;20221;-80
2021/03/22 07:02:14;;;;;;;13.83;4.73;;;;;;;4.06;72.00;95792.78;5022750;28;20198;-84
2021/03/22 07:04:40;;;;;;;12.67;4.90;;;;;;;4.09;72.48;95795.06;5035566;28;20766;-83
2021/03/22 07:07:16;;;;;;;17.77;5.10;;;;;;;4.08;71.98;95798.53;5020152;28;20269;-82
2021/03/22 07:09:45;;;;;;;10.57;4.83;;;;;;;4.08;72.10;95804.44;5021687;28;20293;-82
2021/03/22 07:12:30;;;;;;;14.00;5.13;;;;;;;4.11;71.88;95805.94;5033275;28;20601;-84
2021/03/22 07:15:14;;;;;;;17.30;5.13;;;;;;;4.22;71.45;95807.56;5022188;28;20234;-84
2021/03/22 07:17:40;;;;;;;15.63;4.20;;;;;;;4.33;71.15;95808.25;5042452;28;20221;-80
2021/03/22 07:20:12;;;;;;;12.07;4.63;;;;;;;4.38;71.41;95808.66;5037659;28;20219;-84
2021/03/22 07:22:39;;;;;;;13.30;5.47;;;;;;;4.34;71.89;95812.41;5024878;28;20207;-79
2021/03/22 07:25:18;;;;;;;15.63;5.30;;;;;;;4.33;71.61;95813.34;5023697;28;20233;-81
2021/03/22 07:27:50;;;;;;;12.13;4.93;;;;;;;4.37;70.86;95817.25;5033373;28;20231;-84
2021/03/22 07:30:26;;;;;;;13.13;4.67;;;;;;;4.36;70.42;95818.19;5030803;28;20218;-83
2021/03/22 07:33:06;;;;;;;17.57;5.67;;;;;;;4.50;70.47;95820.34;5033229;28;20282;-83
2021/03/22 07:36:03;;;;;;;13.53;5.20;;;;;;;4.61;69.23;95832.16;5021234;28;20217;-82
2021/03/22 07:39:11;;;;;;;17.00;5.27;;;;;;;4.64;69.35;95824.22;5034611;28;20888;-83
2021/03/22 07:41:47;;;;;;;13.70;5.17;;;;;;;4.69;69.08;95821.28;5008518;28;20222;-84
2021/03/22 07:44:36;;;;;;;16.10;4.87;;;;;;;4.71;69.95;95827.84;5014678;28;20226;-84
2021/03/22 07:47:18;;;;;;;12.80;4.53;;;;;;;4.84;68.34;95825.84;5023742;28;20202;-82
2021/03/22 07:49:55;;;;;;;13.97;4.63;;;;;;;4.80;67.56;95821.97;5033301;28;20755;-82
2021/03/22 07:52:31;;;;;;;15.20;4.97;;;;;;;4.78;67.07;95821.28;5026920;28;20642;-82
2021/03/22 07:55:16;;;;;;;13.47;4.77;;;;;;;4.89;66.09;95827.97;5022030;28;20293;-84
2021/03/22 07:57:49;;;;;;;16.97;4.57;;;;;;;4.96;65.86;95828.25;5031099;28;20225;-83
2021/03/22 08:00:22;;;;;;;14.60;5.07;;;;;;;4.93;65.94;95824.22;5020252;28;20242;-84
2021/03/22 08:03:07;;;;;;;10.70;4.17;;;;;;;4.87;65.56;95822.22;5032069;28;20240;-82
2021/03/22 08:05:42;;;;;;;13.93;4.90;;;;;;;4.94;65.74;95830.94;5016781;28;20571;-81
2021/03/22 08:08:18;;;;;;;11.20;4.40;;;;;;;4.90;65.61;95827.03;5031950;28;20646;-81
2021/03/22 08:10:56;;;;;;;17.03;5.07;;;;;;;4.75;64.93;95836.06;5029765;28;20197;-84
2021/03/22 08:13:52;;;;;;;15.80;4.67;;;;;;;4.76;65.74;95842.75;5013688;28;20708;-83
2021/03/22 08:16:38;;;;;;;13.17;4.30;;;;;;;4.80;65.58;95844.13;4968157;28;20235;-84
2021/03/22 08:19:14;;;;;;;16.07;4.40;;;;;;;4.89;65.42;95840.75;5014692;28;20230;-81
2021/03/22 08:21:45;;;;;;;18.10;4.40;;;;;;;4.92;65.67;95837.91;5013982;28;20234;-84
2021/03/22 08:24:19;;;;;;;11.77;3.87;;;;;;;4.92;65.71;95839.66;5013951;28;20238;-83
2021/03/22 08:26:52;;;;;;;11.53;4.70;;;;;;;4.92;65.49;95837.91;5014413;28;20214;-82
2021/03/22 08:29:23;;;;;;;12.53;4.60;;;;;;;4.99;65.68;95843.31;5013878;28;20718;-80
2021/03/22 08:31:54;;;;;;;14.03;4.97;;;;;;;4.97;65.46;95840.88;5021967;28;20230;-82
2021/03/22 08:34:29;;;;;;;12.17;4.53;;;;;;;5.01;65.72;95843.94;5022620;28;20211;-81
2021/03/22 08:37:04;;;;;;;15.70;4.20;;;;;;;4.98;65.25;95852.69;5013556;28;20222;-83
2021/03/22 08:39:34;;;;;;;12.77;4.57;;;;;;;5.08;65.20;95855.22;5013800;28;20256;-82
2021/03/22 08:42:07;;;;;;;15.97;4.67;;;;;;;5.10;64.18;95856.72;5013952;28;20230;-82
2021/03/22 08:44:38;;;;;;;13.80;4.60;;;;;;;5.08;63.91;95853.47;5013111;28;20235;-81
2021/03/22 08:47:16;;;;;;;12.77;4.13;;;;;;;5.15;64.28;95858.84;5014017;28;20230;-82
2021/03/22 08:49:47;;;;;;;18.20;5.43;;;;;;;5.24;63.61;95857.22;5012740;28;20233;-85
2021/03/22 08:52:20;;;;;;;11.23;4.20;;;;;;;5.36;62.99;95861.25;5013890;28;20203;-85
2021/03/22 08:54:47;;;;;;;13.33;4.70;;;;;;;5.36;62.92;95862.06;5013183;28;20249;-84
2021/03/22 08:57:22;;;;;;;11.67;4.77;;;;;;;5.32;62.65;95865.81;5013462;28;20234;-80
2021/03/22 08:59:49;;;;;;;12.83;4.17;;;;;;;5.19;63.12;95865.31;5013494;28;20257;-82
2021/03/22 09:02:25;;;;;;;12.83;4.43;;;;;;;5.17;63.60;95865.44;5014425;28;20226;-82
2021/03/22 09:04:53;;;;;;;12.50;4.63;;;;;;;5.05;64.84;95881.81;5016161;28;20237;-83
2021/03/22 09:07:32;;;;;;;14.43;4.43;;;;;;;5.14;65.22;95881.03;5033646;28;20198;-83
2021/03/22 09:10:25;;;;;;;15.50;4.57;;;;;;;5.20;64.53;95882.19;5032956;28;20277;-84
2021/03/22 09:12:53;;;;;;;14.57;4.40;;;;;;;5.13;64.68;95886.25;5033309;28;20230;-80
2021/03/22 09:15:24;;;;;;;19.33;4.67;;;;;;;5.15;64.70;95881.81;5033411;28;20230;-84
2021/03/22 09:18:14;;;;;;;19.07;4.67;;;;;;;5.17;64.51;95890.97;5033378;28;20237;-83
2021/03/22 09:21:19;;;;;;;18.53;5.07;;;;;;;5.14;64.99;95885.31;5033509;28;20256;-82
2021/03/22 09:23:47;;;;;;;12.27;4.67;;;;;;;5.11;65.61;95890.69;5033378;28;20257;-84
2021/03/22 09:26:16;;;;;;;17.07;4.90;;;;;;;5.17;65.67;95898.63;5035912;28;20232;-84
2021/03/22 09:29:12;;;;;;;10.53;4.17;;;;;;;5.22;66.05;95900.75;5036740;28;20206;-83
2021/03/22 09:31:41;;;;;;;13.40;3.97;;;;;;;5.23;65.55;95899.81;5036298;28;20268;-84
2021/03/22 09:34:49;;;;;;;14.80;4.63;;;;;;;5.35;65.88;95897.94;5027604;28;20221;-84
2021/03/22 09:37:47;;;;;;;13.17;4.40;;;;;;;5.44;65.33;95905.56;5016711;28;20218;-83
2021/03/22 09:40:48;;;;;;;11.20;4.03;;;;;;;5.39;64.81;95905.16;5029521;28;20228;-84
2021/03/22 09:43:28;;;;;;;11.90;4.47;;;;;;;5.49;65.36;95915.38;5029488;28;20248;-82
2021/03/22 09:46:15;;;;;;;18.43;4.90;;;;;;;5.44;65.11;95913.22;5035449;28;20311;-82
2021/03/22 09:48:41;;;;;;;12.10;4.17;;;;;;;5.57;64.07;95912.16;5032632;28;20221;-83
2021/03/22 09:51:24;;;;;;;10.03;4.37;;;;;;;5.50;64.72;95912.69;5035685;28;20272;-82
2021/03/22 09:53:54;;;;;;;12.50;4.60;;;;;;;5.56;65.61;95913.88;5034133;28;20222;-85
2021/03/22 09:56:28;;;;;;;15.07;4.13;;;;;;;5.65;64.88;95904.59;5022723;28;20238;-82
2021/03/22 09:59:25;;;;;;;8.47;4.03;;;;;;;5.69;63.62;95901.63;5032527;28;20244;-83
2021/03/22 10:01:54;;;;;;;14.03;5.20;;;;;;;5.81;64.12;95908.16;5026805;28;20229;-84
2021/03/22 10:04:32;;;;;;;13.97;4.90;;;;;;;5.88;63.77;95895.66;5031846;28;20214;-84
2021/03/22 10:07:19;;;;;;;15.43;4.93;;;;;;;5.97;63.17;95899.13;5033971;28;20242;-84
2021/03/22 10:09:51;;;;;;;18.07;5.23;;;;;;;5.95;62.05;95904.41;5033178;28;20610;-85
2021/03/22 10:12:20;;;;;;;12.40;4.33;;;;;;;5.84;62.98;95900.22;5030139;28;20223;-83
2021/03/22 10:15:06;;;;;;;11.33;3.73;;;;;;;5.73;63.37;95899.59;5022248;28;20236;-85
2021/03/22 10:17:36;;;;;;;12.77;4.80;;;;;;;5.68;63.20;95900.00;5024552;28;20222;-86
2021/03/22 10:20:18;;;;;;;14.53;4.93;;;;;;;5.62;62.95;95900.56;5033026;28;20289;-86
2021/03/22 10:22:45;;;;;;;12.70;4.40;;;;;;;5.63;61.89;95902.16;5033491;28;20489;-84
2021/03/22 10:25:20;;;;;;;16.70;4.30;;;;;;;5.68;61.63;95896.66;5033825;28;20229;-84
2021/03/22 10:27:46;;;;;;;15.53;4.83;;;;;;;5.74;62.20;95901.22;5024767;28;20776;-85
2021/03/22 10:30:16;;;;;;;11.53;4.20;;;;;;;5.67;62.01;95893.28;5013414;28;20222;-84
2021/03/22 10:32:48;;;;;;;15.83;4.27;;;;;;;5.65;63.42;95892.63;5021282;28;20226;-84
2021/03/22 10:35:16;;;;;;;18.03;5.03;;;;;;;5.70;63.98;95903.22;5014874;28;20238;-85
2021/03/22 10:37:46;;;;;;;16.67;4.87;;;;;;;5.66;63.57;95895.97;5028251;28;20213;-85
2021/03/22 10:40:35;;;;;;;20.87;4.63;;;;;;;5.74;63.42;95901.22;5021428;28;20198;-85
2021/03/22 10:43:03;;;;;;;14.80;4.60;;;;;;;5.70;63.11;95898.13;5033265;28;20222;-83
2021/03/22 10:45:37;;;;;;;9.70;4.23;;;;;;;5.73;64.14;95897.84;5032595;28;20735;-85
2021/03/22 10:48:25;;;;;;;12.00;4.67;;;;;;;5.88;62.86;95898.19;5029286;28;20230;-85
2021/03/22 10:51:11;;;;;;;10.97;4.97;;;;;;;6.02;62.12;95899.53;5013310;28;20244;-82
2021/03/22 10:53:56;;;;;;;15.20;4.77;;;;;;;6.19;61.58;95906.44;5021044;28;20221;-83
2021/03/22 10:56:25;;;;;;;11.27;4.30;;;;;;;6.24;60.84;95894.84;5033027;28;20578;-82
2021/03/22 10:58:51;;;;;;;13.20;4.27;;;;;;;6.31;60.94;95891.72;5031127;28;20425;-84
2021/03/22 11:01:20;;;;;;;14.37;4.17;;;;;;;6.39;61.14;95895.16;5031714;28;20210;-81
2021/03/22 11:03:49;;;;;;;8.97;4.30;;;;;;;6.29;60.20;95891.06;5024226;28;20214;-84
2021/03/22 11:06:28;;;;;;;14.63;4.07;;;;;;;6.26;58.80;95902.38;5017772;28;20245;-81
2021/03/22 11:08:59;;;;;;;14.47;4.97;;;;;;;6.14;59.04;95903.53;5022889;28;20236;-81
2021/03/22 11:11:30;;;;;;;11.30;4.07;;;;;;;6.04;59.42;95908.66;5035223;28;20244;-83
2021/03/22 11:14:00;;;;;;;9.33;4.40;;;;;;;5.93;58.58;95905.47;5021029;28;20218;-82
2021/03/22 11:16:38;;;;;;;12.80;4.43;;;;;;;5.94;59.46;95901.97;5012860;28;20207;-80
2021/03/22 11:19:19;;;;;;;10.50;4.00;;;;;;;5.87;59.61;95910.16;5027668;28;20222;-82
2021/03/22 11:21:45;;;;;;;14.30;4.30;;;;;;;5.77;60.52;95904.25;5019191;28;20225;-83
2021/03/22 11:24:25;;;;;;;19.37;4.57;;;;;;;5.66;61.48;95899.34;5015566;28;20230;-84
2021/03/22 11:27:03;;;;;;;12.00;3.90;;;;;;;5.67;62.10;95910.34;5032946;28;20229;-82
2021/03/22 11:29:29;;;;;;;11.27;4.10;;;;;;;5.60;61.97;95914.41;5033457;28;20240;-81
2021/03/22 11:32:00;;;;;;;15.20;4.67;;;;;;;5.58;62.52;95904.31;5012493;28;20235;-80
2021/03/22 11:34:33;;;;;;;13.57;4.33;;;;;;;5.59;62.79;95907.69;5024493;28;20694;-80
2021/03/22 11:37:08;;;;;;;11.50;4.00;;;;;;;5.61;63.86;95911.72;5027121;28;20896;-83
2021/03/22 11:39:37;;;;;;;12.20;4.33;;;;;;;5.77;62.51;95896.59;5029278;28;20233;-84
2021/03/22 11:42:16;;;;;;;10.83;4.43;;;;;;;5.77;62.37;95906.81;5031993;28;20306;-83
2021/03/22 11:44:42;;;;;;;10.43;4.17;;;;;;;5.88;61.97;95905.88;5028178;28;20229;-82
2021/03/22 11:47:39;;;;;;;11.07;4.27;;;;;;;5.94;60.65;95899.44;5031567;28;20229;-83
2021/03/22 11:50:37;;;;;;;15.90;4.40;;;;;;;5.85;60.64;95906.94;5012136;28;20903;-82
2021/03/22 11:53:09;;;;;;;12.03;4.10;;;;;;;5.82;60.96;95903.84;4967158;28;20238;-83
2021/03/22 11:55:41;;;;;;;10.27;4.80;;;;;;;5.72;61.97;95914.13;5019355;28;20214;-83
2021/03/22 11:58:26;;;;;;;11.07;3.90;;;;;;;5.68;62.18;95920.44;5012416;28;20205;-84
2021/03/22 12:00:53;;;;;;;8.90;4.03;;;;;;;5.57;63.26;95919.81;5025802;28;20222;-80